Terminal Aerodrome Forecast
Issued by NWS

Home | Current Version | Previous Version | Text Only | Print | Product List | Glossary On
Versions: 1 2 3 4 5 6 7 8 9 10 11 12 13
802
FTUS45 KABQ 011146
TAFROW
TAF
KROW 011146Z 0112/0212 03015G22KT P6SM BKN025 OVC040
     FM011800 02012KT P6SM VCSH SCT025 BKN040 BKN070
      TEMPO 0118/0122 BKN030=

USA.gov is the U.S. government's official web portal to all federal, state and local government web resources and services.